Terminal Aerodrome Forecast
Issued by NWS Tampa Bay Area, FL

Home | Current Version | Previous Version | Text Only | Print | Product List | Glossary On
Versions: 1 2 3 4 5 6 7 8 9 10 11 12
000
FTUS42 KTBW 092328
TAFFMY
TAF
KFMY 092328Z 1000/1024 28013G19KT P6SM FEW030 BKN045
     FM100400 29009KT P6SM SCT025 BKN035
     FM101200 01009KT P6SM SCT025 BKN035
     FM101600 34009KT P6SM FEW025 SCT040
     FM101900 31009G20KT P6SM FEW030 SCT040=

USA.gov is the U.S. government's official web portal to all federal, state and local government web resources and services.